Terminal Aerodrome Forecast
Issued by NWS

Home | Current Version | Previous Version | Text Only | Print | Product List | Glossary On
Versions: 1 2 3 4 5 6 7 8 9 10 11 12 13 14 15 16 17 18 19 20 21 22 23 24 25
000
FTUS43 KDLH 280200 AAA
TAFHIB
TAF AMD
KHIB 280249Z 2803/2824 16005KT P6SM SCT015 OVC110
      TEMPO 2804/2806 BKN015
     FM280600 16004KT P6SM OVC015
     FM281200 16006KT 6SM BR OVC006
     FM281600 13005KT 4SM BR OVC005=

USA.gov is the U.S. government's official web portal to all federal, state and local government web resources and services.